createdAt,value
2019-01-17T00:00:58.457Z,3.80
2019-01-17T00:06:59.876Z,3.90
2019-01-17T00:13:18.843Z,4.00
2019-01-17T00:16:28.738Z,4.00
2019-01-17T00:19:37.180Z,4.10
2019-01-17T00:25:58.161Z,4.30
2019-01-17T00:32:18.340Z,4.40
2019-01-17T00:35:26.819Z,4.50
2019-01-17T00:38:35.268Z,4.50
2019-01-17T00:41:25.802Z,4.60
2019-01-17T00:44:34.250Z,4.60
2019-01-17T00:47:42.689Z,4.70
2019-01-17T00:51:28.040Z,4.70
2019-01-17T00:54:36.736Z,4.80
2019-01-17T00:57:45.206Z,5.00
2019-01-17T01:00:53.703Z,5.20
2019-01-17T01:04:02.149Z,5.30
2019-01-17T01:07:10.641Z,5.40
2019-01-17T01:10:19.062Z,5.60
2019-01-17T01:13:27.622Z,5.70
2019-01-17T01:16:36.850Z,5.80
2019-01-17T01:19:45.567Z,5.90
2019-01-17T01:22:47.970Z,5.80
2019-01-17T01:25:56.671Z,5.90
2019-01-17T01:29:05.117Z,6.00
2019-01-17T01:32:13.560Z,6.00
2019-01-17T01:35:15.263Z,6.00
2019-01-17T01:38:18.164Z,6.00
2019-01-17T01:41:27.321Z,6.00
2019-01-17T01:44:35.753Z,6.00
2019-01-17T01:48:21.280Z,6.00
2019-01-17T01:51:29.758Z,6.00
2019-01-17T01:54:22.173Z,6.00
2019-01-17T01:57:10.921Z,6.10
2019-01-17T02:00:00.487Z,6.00
2019-01-17T02:02:50.729Z,6.00
2019-01-17T02:05:40.317Z,6.00
2019-01-17T02:08:29.910Z,6.00
2019-01-17T02:11:19.502Z,5.90
2019-01-17T02:14:09.504Z,5.80
2019-01-17T02:16:59.080Z,5.70
2019-01-17T02:19:48.665Z,5.60
2019-01-17T02:22:30.561Z,5.50
2019-01-17T02:25:20.155Z,5.50
2019-01-17T02:28:09.708Z,5.50
2019-01-17T02:30:59.288Z,5.50
2019-01-17T02:33:46.568Z,5.50
2019-01-17T02:36:36.435Z,5.40
2019-01-17T02:40:02.849Z,5.40
2019-01-17T02:42:52.717Z,5.40
2019-01-17T02:45:42.645Z,5.30
2019-01-17T02:48:32.554Z,5.40
2019-01-17T02:51:22.163Z,5.40
2019-01-17T02:54:12.996Z,5.30
2019-01-17T02:57:02.548Z,5.40
2019-01-17T02:59:52.499Z,5.30
2019-01-17T03:02:42.382Z,5.30
2019-01-17T03:05:31.961Z,5.30
2019-01-17T03:08:21.519Z,5.30
2019-01-17T03:11:11.381Z,5.40
2019-01-17T03:14:00.950Z,5.40
2019-01-17T03:16:50.606Z,5.40
2019-01-17T03:19:40.180Z,5.40
2019-01-17T03:22:22.992Z,5.40
2019-01-17T03:25:12.601Z,5.30
2019-01-17T03:28:02.199Z,5.30
2019-01-17T03:30:52.088Z,5.20
2019-01-17T03:37:45.821Z,5.30
2019-01-17T03:40:35.388Z,5.40
2019-01-17T03:43:25.242Z,5.40
2019-01-17T03:46:14.829Z,5.30
2019-01-17T03:49:04.407Z,5.40
2019-01-17T03:51:54.273Z,5.40
2019-01-17T03:54:50.665Z,5.40
2019-01-17T03:57:35.154Z,5.40
2019-01-17T04:00:24.857Z,5.40
2019-01-17T04:03:14.476Z,5.40
2019-01-17T04:06:04.237Z,5.50
2019-01-17T04:08:53.934Z,5.50
2019-01-17T04:11:43.622Z,5.50
2019-01-17T04:14:33.209Z,5.50
2019-01-17T04:17:22.792Z,5.50
2019-01-17T04:20:14.641Z,5.50
2019-01-17T04:23:03.523Z,5.50
2019-01-17T04:25:46.237Z,5.50
2019-01-17T04:28:35.800Z,5.50
2019-01-17T04:31:25.969Z,5.60
2019-01-17T04:34:15.541Z,5.60
2019-01-17T04:40:01.108Z,5.60
2019-01-17T04:42:51.027Z,5.60
2019-01-17T04:45:40.613Z,5.70
2019-01-17T04:48:30.196Z,5.70
2019-01-17T04:51:19.750Z,5.70
2019-01-17T04:54:09.327Z,5.70
2019-01-17T04:56:59.184Z,5.60
2019-01-17T04:59:48.900Z,5.50
2019-01-17T05:02:38.486Z,5.50
2019-01-17T05:05:28.075Z,5.40
2019-01-17T05:08:37.574Z,5.30
2019-01-17T05:11:27.173Z,5.30
2019-01-17T05:14:16.741Z,5.20
2019-01-17T05:17:06.310Z,5.20
2019-01-17T05:19:55.922Z,5.20
2019-01-17T05:22:38.196Z,5.10
2019-01-17T05:25:28.172Z,5.20
2019-01-17T05:28:18.057Z,5.20
2019-01-17T05:31:07.691Z,5.30
2019-01-17T05:34:19.736Z,5.20
2019-01-17T05:36:48.558Z,5.30
2019-01-17T05:39:38.497Z,5.30
2019-01-17T05:42:28.327Z,5.30
2019-01-17T05:45:18.304Z,5.30
2019-01-17T05:48:07.872Z,5.20
2019-01-17T05:50:57.458Z,5.10
2019-01-17T05:53:47.017Z,5.00
2019-01-17T05:56:36.586Z,5.00
2019-01-17T05:59:26.151Z,5.00
2019-01-17T06:02:15.836Z,4.80
2019-01-17T06:05:06.119Z,4.90
2019-01-17T06:07:55.953Z,4.80
2019-01-17T06:10:45.546Z,4.80
2019-01-17T06:16:45.249Z,4.80
2019-01-17T06:23:18.290Z,4.80
2019-01-17T06:26:07.879Z,4.80
2019-01-17T06:32:06.207Z,4.80
2019-01-17T06:34:55.785Z,4.80
2019-01-17T06:37:45.388Z,4.80
2019-01-17T06:40:34.987Z,4.80
2019-01-17T06:43:43.450Z,4.80
2019-01-17T06:46:33.305Z,4.80
2019-01-17T06:49:23.194Z,4.80
2019-01-17T06:52:12.811Z,4.80
2019-01-17T06:55:02.367Z,4.80
2019-01-17T06:57:51.936Z,4.70
2019-01-17T07:00:42.129Z,4.70
2019-01-17T07:03:31.745Z,4.70
2019-01-17T07:06:21.343Z,4.80
2019-01-17T07:09:10.933Z,4.80
2019-01-17T07:12:00.513Z,4.80
2019-01-17T07:14:50.077Z,4.70
2019-01-17T07:17:39.654Z,4.90
2019-01-17T07:20:29.211Z,4.80
2019-01-17T07:23:36.939Z,4.90
2019-01-17T07:29:39.306Z,4.90
2019-01-17T07:35:42.580Z,4.90
2019-01-17T07:38:25.129Z,4.90
2019-01-17T07:41:14.709Z,4.90
2019-01-17T07:44:04.620Z,5.00
2019-01-17T07:46:54.847Z,5.00
2019-01-17T07:49:44.444Z,5.10
2019-01-17T07:53:29.727Z,5.10
2019-01-17T07:59:13.131Z,5.10
2019-01-17T08:02:02.707Z,5.10
2019-01-17T08:04:52.598Z,5.10
2019-01-17T08:07:42.177Z,5.10
2019-01-17T08:10:31.775Z,5.10
2019-01-17T08:13:21.363Z,5.10
2019-01-17T08:16:11.032Z,5.10
2019-01-17T08:19:00.624Z,5.00
2019-01-17T08:21:43.262Z,5.00
2019-01-17T08:24:32.826Z,5.10
2019-01-17T08:27:59.036Z,5.10
2019-01-17T08:31:24.040Z,5.10
2019-01-17T08:41:11.527Z,5.20
2019-01-17T08:44:36.848Z,5.20
2019-01-17T08:47:26.424Z,5.20
2019-01-17T08:50:33.682Z,5.20
2019-01-17T08:53:23.258Z,5.20
2019-01-17T09:00:34.607Z,5.20
2019-01-17T09:03:42.088Z,5.20
2019-01-17T09:07:24.685Z,5.20
2019-01-17T09:14:29.745Z,5.30
2019-01-17T09:17:19.343Z,5.30
2019-01-17T09:20:11.307Z,5.30
2019-01-17T09:22:53.644Z,5.20
2019-01-17T09:34:11.704Z,5.30
2019-01-17T09:37:18.940Z,5.30
2019-01-17T09:44:10.663Z,5.40
2019-01-17T09:47:00.326Z,5.40
2019-01-17T09:49:49.883Z,5.40
2019-01-17T09:52:39.764Z,5.40
2019-01-17T09:55:29.324Z,5.30
2019-01-17T09:58:18.894Z,5.30
2019-01-17T10:01:08.599Z,5.40
2019-01-17T10:03:58.164Z,5.40
2019-01-17T10:06:47.736Z,5.40
2019-01-17T10:09:37.305Z,5.40
2019-01-17T10:12:27.322Z,5.40
2019-01-17T10:15:52.515Z,5.40
2019-01-17T10:19:37.826Z,5.50
2019-01-17T10:22:43.032Z,5.50
2019-01-17T10:26:10.815Z,5.50
2019-01-17T10:33:29.218Z,5.50
2019-01-17T10:36:46.069Z,5.50
2019-01-17T10:40:13.786Z,5.40
2019-01-17T10:43:35.266Z,5.40
2019-01-17T10:47:10.188Z,5.50
2019-01-17T10:50:23.659Z,5.40
2019-01-17T10:53:49.791Z,5.40
2019-01-17T10:57:15.007Z,5.40
2019-01-17T11:04:51.249Z,5.40
2019-01-17T11:08:06.714Z,5.40
2019-01-17T11:26:02.073Z,5.70
2019-01-17T11:29:45.495Z,6.00
2019-01-17T11:36:22.616Z,6.60
2019-01-17T11:47:26.770Z,5.90
2019-01-17T11:50:46.375Z,6.00
2019-01-17T11:54:03.792Z,6.00
2019-01-17T12:05:14.752Z,6.30
2019-01-17T12:08:59.712Z,7.50
2019-01-17T12:11:49.909Z,8.10
2019-01-17T12:14:39.463Z,8.40
2019-01-17T12:17:27.965Z,8.90
2019-01-17T12:20:17.520Z,8.30
2019-01-17T12:22:59.494Z,7.20
2019-01-17T12:25:49.051Z,6.50
2019-01-17T12:28:38.740Z,6.20
2019-01-17T12:31:28.300Z,6.20
2019-01-17T12:34:17.916Z,6.10
2019-01-17T12:37:07.493Z,6.00
2019-01-17T12:39:57.095Z,6.00
2019-01-17T12:42:46.690Z,5.90
2019-01-17T12:45:36.271Z,5.80
2019-01-17T12:48:25.884Z,6.00
2019-01-17T12:51:15.493Z,7.70
2019-01-17T12:54:05.256Z,7.30
2019-01-17T12:56:54.843Z,6.80
2019-01-17T12:59:44.429Z,6.50
2019-01-17T13:02:33.994Z,6.50
2019-01-17T13:05:23.558Z,6.70
2019-01-17T13:08:49.990Z,6.60
2019-01-17T13:11:39.587Z,7.10
2019-01-17T13:14:29.157Z,6.40
2019-01-17T13:17:18.745Z,6.30
2019-01-17T13:20:30.199Z,6.20
2019-01-17T13:23:12.538Z,6.10
2019-01-17T13:26:02.118Z,6.10
2019-01-17T13:28:51.697Z,6.00
2019-01-17T13:31:41.274Z,5.90
2019-01-17T13:34:30.858Z,5.90
2019-01-17T13:37:20.447Z,6.00
2019-01-17T13:43:59.468Z,6.10
2019-01-17T13:47:24.831Z,6.70
2019-01-17T13:50:32.045Z,8.20
2019-01-17T13:53:21.624Z,7.90
2019-01-17T14:03:56.502Z,6.50
2019-01-17T14:06:46.082Z,6.40
2019-01-17T14:09:35.701Z,6.40
2019-01-17T14:12:25.329Z,6.40
2019-01-17T14:15:52.279Z,7.30
2019-01-17T14:18:44.623Z,6.50
2019-01-17T14:21:26.944Z,6.00
2019-01-17T14:24:16.529Z,5.80
2019-01-17T14:30:33.216Z,5.50
2019-01-17T14:33:40.764Z,5.40
2019-01-17T14:42:23.690Z,4.50
2019-01-17T14:45:14.977Z,4.40
2019-01-17T14:53:59.030Z,4.40
2019-01-17T15:46:40.149Z,4.50
2019-01-17T16:05:12.048Z,5.00
2019-01-17T16:50:57.800Z,4.80
2019-01-17T17:06:25.023Z,1.80
2019-01-17T17:15:16.046Z,1.70
2019-01-17T17:18:05.676Z,1.80
2019-01-17T17:26:37.768Z,1.90
2019-01-17T17:29:27.435Z,1.90
2019-01-17T17:35:07.704Z,2.00
2019-01-17T17:41:00.896Z,2.00
2019-01-17T17:47:08.953Z,2.10
2019-01-17T17:58:48.312Z,2.30
2019-01-17T18:07:41.988Z,2.30
2019-01-17T18:10:32.457Z,2.30
2019-01-17T18:13:39.609Z,2.30
2019-01-17T18:16:29.486Z,2.30
2019-01-17T18:19:56.103Z,2.40
2019-01-17T18:25:29.364Z,2.60
2019-01-17T18:28:19.213Z,2.60
2019-01-17T18:31:26.694Z,2.50
2019-01-17T18:34:16.348Z,2.50
2019-01-17T18:37:05.940Z,2.50
2019-01-17T18:39:55.825Z,2.60
2019-01-17T18:42:38.526Z,2.60
2019-01-17T18:45:28.138Z,2.70
2019-01-17T18:48:17.615Z,2.70
2019-01-17T18:51:25.242Z,2.70
2019-01-17T18:54:15.054Z,2.50
2019-01-17T19:07:55.591Z,2.20
2019-01-17T19:10:45.238Z,1.90
2019-01-17T19:13:36.057Z,1.60
2019-01-17T19:16:26.615Z,1.50
2019-01-17T19:19:16.192Z,1.50
2019-01-17T19:21:58.301Z,1.50
2019-01-17T19:25:43.336Z,1.40
2019-01-17T19:28:32.935Z,1.40
2019-01-17T19:31:22.504Z,1.40
2019-01-17T19:35:07.738Z,1.30
2019-01-17T19:38:15.622Z,1.30
2019-01-17T19:41:05.196Z,1.30
2019-01-17T19:43:54.803Z,1.30
2019-01-17T19:50:49.870Z,1.40
2019-01-17T19:53:40.062Z,1.40
2019-01-17T19:56:29.742Z,1.30
2019-01-17T20:00:12.390Z,1.30
2019-01-17T20:03:01.962Z,1.30
2019-01-17T20:10:17.574Z,1.30
2019-01-17T20:13:07.472Z,1.30
2019-01-17T20:15:57.335Z,1.40
2019-01-17T20:18:46.993Z,1.40
2019-01-17T20:21:33.308Z,1.40
2019-01-17T20:24:40.460Z,1.40
2019-01-17T20:27:30.293Z,1.40
2019-01-17T20:30:39.605Z,1.40
2019-01-17T20:33:29.650Z,1.50
2019-01-17T20:36:19.655Z,1.50
2019-01-17T20:39:46.292Z,1.50
2019-01-17T20:42:36.522Z,1.40
2019-01-17T20:45:24.522Z,1.40
2019-01-17T20:48:14.091Z,1.40
2019-01-17T20:51:21.305Z,1.40
2019-01-17T20:54:32.542Z,1.30
2019-01-17T20:57:22.228Z,1.30
2019-01-17T21:00:57.249Z,1.30
2019-01-17T21:03:47.632Z,1.30
2019-01-17T21:11:20.274Z,1.20
2019-01-17T21:14:45.071Z,1.20
2019-01-17T21:24:48.577Z,1.20
2019-01-17T21:27:37.302Z,1.20
2019-01-17T21:33:32.460Z,1.20
2019-01-17T21:36:39.979Z,1.20
2019-01-17T21:39:29.639Z,1.10
2019-01-17T21:42:19.328Z,1.10
2019-01-17T21:45:11.165Z,1.10
2019-01-17T21:48:36.758Z,1.10
2019-01-17T21:51:43.898Z,1.10
2019-01-17T21:54:33.758Z,1.20
2019-01-17T22:00:55.056Z,1.30
2019-01-17T22:03:44.019Z,1.20
2019-01-17T22:06:33.594Z,1.20
2019-01-17T22:09:23.279Z,1.20
2019-01-17T22:12:13.364Z,1.20
2019-01-17T22:15:03.417Z,1.20
2019-01-17T22:21:40.680Z,1.20
2019-01-17T22:24:25.304Z,1.20
2019-01-17T22:27:14.880Z,1.10
2019-01-17T22:33:14.323Z,1.20
2019-01-17T22:36:04.772Z,1.10
2019-01-17T22:38:54.965Z,1.20
2019-01-17T22:41:37.837Z,1.20
2019-01-17T22:45:03.124Z,1.20
2019-01-17T22:48:29.363Z,1.20
2019-01-17T22:55:18.057Z,1.10
2019-01-17T22:58:25.718Z,1.10
2019-01-17T23:05:06.917Z,1.00
2019-01-17T23:08:50.376Z,1.00
2019-01-17T23:11:40.042Z,1.00
2019-01-17T23:15:23.546Z,1.00
2019-01-17T23:18:33.006Z,1.00
2019-01-17T23:21:15.501Z,1.00
2019-01-17T23:24:05.436Z,0.90
2019-01-17T23:26:55.208Z,1.00
2019-01-17T23:29:45.183Z,1.00
2019-01-17T23:35:24.333Z,1.10
2019-01-17T23:38:50.791Z,1.10
2019-01-17T23:41:41.247Z,1.00
2019-01-17T23:52:06.399Z,1.10
2019-01-17T23:55:31.383Z,1.10
